sensor_id;sensor_type;location;lat;lon;timestamp;pressure;altitude;pressure_sealevel;temperature;humidity
79457;BME280;69494;43.654;3.884;2024-02-04T00:01:24;102543.13;;;15.27;57.89
79457;BME280;69494;43.654;3.884;2024-02-04T00:03:50;102539.66;;;15.25;57.90
79457;BME280;69494;43.654;3.884;2024-02-04T00:06:15;102531.78;;;15.22;57.96
79457;BME280;69494;43.654;3.884;2024-02-04T00:08:41;102531.81;;;15.19;58.02
79457;BME280;69494;43.654;3.884;2024-02-04T00:11:06;102537.91;;;15.18;58.07
79457;BME280;69494;43.654;3.884;2024-02-04T00:13:33;102538.81;;;15.15;57.93
79457;BME280;69494;43.654;3.884;2024-02-04T00:15:59;102541.44;;;15.12;58.06
79457;BME280;69494;43.654;3.884;2024-02-04T00:18:24;102533.56;;;15.11;57.80
79457;BME280;69494;43.654;3.884;2024-02-04T00:20:50;102525.72;;;15.07;58.02
79457;BME280;69494;43.654;3.884;2024-02-04T00:23:16;102527.47;;;15.04;58.03
79457;BME280;69494;43.654;3.884;2024-02-04T00:25:41;102530.13;;;15.01;57.86
79457;BME280;69494;43.654;3.884;2024-02-04T00:28:07;102523.13;;;15.00;57.85
79457;BME280;69494;43.654;3.884;2024-02-04T00:30:33;102528.38;;;14.97;58.03
79457;BME280;69494;43.654;3.884;2024-02-04T00:32:58;102525.78;;;14.95;57.87
79457;BME280;69494;43.654;3.884;2024-02-04T00:35:28;102524.03;;;14.93;57.88
79457;BME280;69494;43.654;3.884;2024-02-04T00:37:53;102520.53;;;14.91;57.98
79457;BME280;69494;43.654;3.884;2024-02-04T00:40:19;102532.75;;;14.87;57.95
79457;BME280;69494;43.654;3.884;2024-02-04T00:42:44;102527.53;;;14.85;58.27
79457;BME280;69494;43.654;3.884;2024-02-04T00:45:10;102519.69;;;14.84;58.06
79457;BME280;69494;43.654;3.884;2024-02-04T00:47:36;102519.69;;;14.79;58.22
79457;BME280;69494;43.654;3.884;2024-02-04T00:50:01;102508.34;;;14.79;58.02
79457;BME280;69494;43.654;3.884;2024-02-04T00:52:27;102513.59;;;14.77;58.11
79457;BME280;69494;43.654;3.884;2024-02-04T00:54:52;102511.00;;;14.74;58.20
79457;BME280;69494;43.654;3.884;2024-02-04T00:57:17;102503.13;;;14.71;58.46
79457;BME280;69494;43.654;3.884;2024-02-04T00:59:43;102505.75;;;14.68;58.01
79457;BME280;69494;43.654;3.884;2024-02-04T01:02:08;102497.03;;;14.66;58.09
79457;BME280;69494;43.654;3.884;2024-02-04T01:04:33;102505.78;;;14.65;58.60
79457;BME280;69494;43.654;3.884;2024-02-04T01:06:59;102500.53;;;14.62;58.65
79457;BME280;69494;43.654;3.884;2024-02-04T01:09:24;102499.66;;;14.60;58.16
79457;BME280;69494;43.654;3.884;2024-02-04T01:11:50;102497.03;;;14.57;58.42
79457;BME280;69494;43.654;3.884;2024-02-04T01:14:15;102494.41;;;14.54;58.27
79457;BME280;69494;43.654;3.884;2024-02-04T01:16:40;102497.91;;;14.51;58.45
79457;BME280;69494;43.654;3.884;2024-02-04T01:19:06;102504.88;;;14.49;58.44
79457;BME280;69494;43.654;3.884;2024-02-04T01:21:31;102500.50;;;14.46;58.37
79457;BME280;69494;43.654;3.884;2024-02-04T01:23:56;102505.75;;;14.43;58.66
79457;BME280;69494;43.654;3.884;2024-02-04T01:26:22;102501.38;;;14.42;58.48
79457;BME280;69494;43.654;3.884;2024-02-04T01:28:49;102498.75;;;14.39;58.54
79457;BME280;69494;43.654;3.884;2024-02-04T01:31:14;102503.13;;;14.37;58.37
79457;BME280;69494;43.654;3.884;2024-02-04T01:33:40;102513.56;;;14.34;58.47
79457;BME280;69494;43.654;3.884;2024-02-04T01:36:05;102512.69;;;14.32;58.49
79457;BME280;69494;43.654;3.884;2024-02-04T01:38:31;102511.84;;;14.30;58.64
79457;BME280;69494;43.654;3.884;2024-02-04T01:40:56;102510.09;;;14.26;58.50
79457;BME280;69494;43.654;3.884;2024-02-04T01:43:23;102520.53;;;14.24;58.93
79457;BME280;69494;43.654;3.884;2024-02-04T01:45:50;102515.31;;;14.23;58.93
79457;BME280;69494;43.654;3.884;2024-02-04T01:48:15;102516.19;;;14.20;58.84
79457;BME280;69494;43.654;3.884;2024-02-04T01:50:41;102514.44;;;14.18;58.73
79457;BME280;69494;43.654;3.884;2024-02-04T01:53:08;102517.03;;;14.15;58.84
79457;BME280;69494;43.654;3.884;2024-02-04T01:55:33;102524.00;;;14.13;58.82
79457;BME280;69494;43.654;3.884;2024-02-04T01:57:58;102517.03;;;14.10;59.01
79457;BME280;69494;43.654;3.884;2024-02-04T02:00:24;102523.13;;;14.07;59.23
79457;BME280;69494;43.654;3.884;2024-02-04T02:02:51;102517.91;;;14.06;59.35
79457;BME280;69494;43.654;3.884;2024-02-04T02:05:18;102520.53;;;14.03;59.31
79457;BME280;69494;43.654;3.884;2024-02-04T02:07:43;102517.91;;;14.00;59.33
79457;BME280;69494;43.654;3.884;2024-02-04T02:10:11;102523.09;;;13.98;59.29
79457;BME280;69494;43.654;3.884;2024-02-04T02:12:48;102527.47;;;13.98;59.13
79457;BME280;69494;43.654;3.884;2024-02-04T02:15:20;102523.97;;;13.94;58.98
79457;BME280;69494;43.654;3.884;2024-02-04T02:17:57;102532.69;;;13.91;59.25
79457;BME280;69494;43.654;3.884;2024-02-04T02:20:41;102533.53;;;13.89;59.20
79457;BME280;69494;43.654;3.884;2024-02-04T02:23:10;102528.31;;;13.86;59.12
79457;BME280;69494;43.654;3.884;2024-02-04T02:25:36;102530.94;;;13.84;59.54
79457;BME280;69494;43.654;3.884;2024-02-04T02:28:03;102533.53;;;13.81;59.37
79457;BME280;69494;43.654;3.884;2024-02-04T02:30:29;102533.53;;;13.80;59.47
79457;BME280;69494;43.654;3.884;2024-02-04T02:32:54;102537.88;;;13.78;59.59
79457;BME280;69494;43.654;3.884;2024-02-04T02:35:20;102541.34;;;13.75;59.67
79457;BME280;69494;43.654;3.884;2024-02-04T02:40:36;102534.34;;;13.69;59.48
79457;BME280;69494;43.654;3.884;2024-02-04T02:43:03;102528.25;;;13.67;59.76
79457;BME280;69494;43.654;3.884;2024-02-04T02:45:29;102531.75;;;13.65;59.59
79457;BME280;69494;43.654;3.884;2024-02-04T02:47:56;102533.47;;;13.61;59.74
79457;BME280;69494;43.654;3.884;2024-02-04T02:50:22;102529.09;;;13.59;59.67
79457;BME280;69494;43.654;3.884;2024-02-04T02:52:47;102518.63;;;13.57;60.02
79457;BME280;69494;43.654;3.884;2024-02-04T02:55:12;102523.00;;;13.55;60.01
79457;BME280;69494;43.654;3.884;2024-02-04T02:57:38;102512.53;;;13.52;60.21
79457;BME280;69494;43.654;3.884;2024-02-04T03:00:04;102498.59;;;13.50;59.98
79457;BME280;69494;43.654;3.884;2024-02-04T03:02:31;102497.72;;;13.48;59.96
79457;BME280;69494;43.654;3.884;2024-02-04T03:04:56;102502.94;;;13.45;60.33
79457;BME280;69494;43.654;3.884;2024-02-04T03:07:21;102506.41;;;13.42;59.74
79457;BME280;69494;43.654;3.884;2024-02-04T03:09:47;102511.63;;;13.41;60.01
79457;BME280;69494;43.654;3.884;2024-02-04T03:12:13;102507.28;;;13.38;59.98
79457;BME280;69494;43.654;3.884;2024-02-04T03:14:38;102502.91;;;13.35;60.07
79457;BME280;69494;43.654;3.884;2024-02-04T03:17:03;102499.41;;;13.33;60.22
79457;BME280;69494;43.654;3.884;2024-02-04T03:19:29;102495.06;;;13.31;60.23
79457;BME280;69494;43.654;3.884;2024-02-04T03:21:54;102492.44;;;13.31;60.20
79457;BME280;69494;43.654;3.884;2024-02-04T03:24:19;102492.41;;;13.28;60.49
79457;BME280;69494;43.654;3.884;2024-02-04T03:26:45;102495.00;;;13.26;60.19
79457;BME280;69494;43.654;3.884;2024-02-04T03:29:10;102491.50;;;13.23;60.04
79457;BME280;69494;43.654;3.884;2024-02-04T03:31:36;102481.06;;;13.21;60.15
79457;BME280;69494;43.654;3.884;2024-02-04T03:34:01;102475.81;;;13.20;59.88
79457;BME280;69494;43.654;3.884;2024-02-04T03:36:27;102475.84;;;13.18;60.73
79457;BME280;69494;43.654;3.884;2024-02-04T03:38:53;102481.91;;;13.15;60.12
79457;BME280;69494;43.654;3.884;2024-02-04T03:41:18;102481.00;;;13.12;60.16
79457;BME280;69494;43.654;3.884;2024-02-04T03:43:44;102474.03;;;13.11;60.29
79457;BME280;69494;43.654;3.884;2024-02-04T03:46:13;102469.69;;;13.10;60.43
79457;BME280;69494;43.654;3.884;2024-02-04T03:48:39;102465.31;;;13.07;60.11
79457;BME280;69494;43.654;3.884;2024-02-04T03:51:05;102467.06;;;13.07;60.52
79457;BME280;69494;43.654;3.884;2024-02-04T03:53:30;102467.94;;;13.04;60.21
79457;BME280;69494;43.654;3.884;2024-02-04T03:55:55;102470.53;;;13.01;60.05
79457;BME280;69494;43.654;3.884;2024-02-04T03:58:22;102477.47;;;13.01;60.19
79457;BME280;69494;43.654;3.884;2024-02-04T04:00:57;102477.47;;;12.97;60.00
79457;BME280;69494;43.654;3.884;2024-02-04T04:03:22;102476.59;;;12.95;59.75
79457;BME280;69494;43.654;3.884;2024-02-04T04:05:49;102473.97;;;12.94;59.98
79457;BME280;69494;43.654;3.884;2024-02-04T04:08:14;102466.13;;;12.92;59.89
79457;BME280;69494;43.654;3.884;2024-02-04T04:10:39;102476.53;;;12.91;59.86
79457;BME280;69494;43.654;3.884;2024-02-04T04:13:05;102468.72;;;12.91;59.95
79457;BME280;69494;43.654;3.884;2024-02-04T04:15:30;102475.66;;;12.89;60.34
79457;BME280;69494;43.654;3.884;2024-02-04T04:17:56;102484.34;;;12.86;59.99
79457;BME280;69494;43.654;3.884;2024-02-04T04:20:21;102481.75;;;12.85;59.98
79457;BME280;69494;43.654;3.884;2024-02-04T04:22:46;102479.13;;;12.83;60.26
79457;BME280;69494;43.654;3.884;2024-02-04T04:25:12;102490.41;;;12.82;60.22
79457;BME280;69494;43.654;3.884;2024-02-04T04:27:39;102480.84;;;12.81;60.13
79457;BME280;69494;43.654;3.884;2024-02-04T04:30:04;102488.66;;;12.80;60.18
79457;BME280;69494;43.654;3.884;2024-02-04T04:32:30;102482.56;;;12.77;60.03
79457;BME280;69494;43.654;3.884;2024-02-04T04:34:56;102488.63;;;12.76;59.84
79457;BME280;69494;43.654;3.884;2024-02-04T04:37:21;102485.13;;;12.74;60.00
79457;BME280;69494;43.654;3.884;2024-02-04T04:39:47;102477.31;;;12.73;59.99
79457;BME280;69494;43.654;3.884;2024-02-04T04:42:12;102477.31;;;12.70;59.93
79457;BME280;69494;43.654;3.884;2024-02-04T04:44:38;102479.91;;;12.68;59.96
79457;BME280;69494;43.654;3.884;2024-02-04T04:47:03;102487.72;;;12.67;59.97
79457;BME280;69494;43.654;3.884;2024-02-04T04:49:29;102479.00;;;12.65;60.10
79457;BME280;69494;43.654;3.884;2024-02-04T04:51:54;102480.72;;;12.63;60.15
79457;BME280;69494;43.654;3.884;2024-02-04T04:54:20;102493.75;;;12.64;60.17
79457;BME280;69494;43.654;3.884;2024-02-04T04:56:46;102491.16;;;12.61;59.82
79457;BME280;69494;43.654;3.884;2024-02-04T04:59:12;102493.75;;;12.59;59.89
79457;BME280;69494;43.654;3.884;2024-02-04T05:01:37;102499.81;;;12.58;59.80
79457;BME280;69494;43.654;3.884;2024-02-04T05:04:02;102498.06;;;12.57;60.08
79457;BME280;69494;43.654;3.884;2024-02-04T05:06:28;102493.72;;;12.56;59.96
79457;BME280;69494;43.654;3.884;2024-02-04T05:08:53;102492.81;;;12.54;59.83
79457;BME280;69494;43.654;3.884;2024-02-04T05:11:18;102493.69;;;12.53;59.69
79457;BME280;69494;43.654;3.884;2024-02-04T05:13:44;102493.69;;;12.50;59.79
79457;BME280;69494;43.654;3.884;2024-02-04T05:16:09;102486.72;;;12.51;59.74
79457;BME280;69494;43.654;3.884;2024-02-04T05:18:35;102479.72;;;12.48;59.64
79457;BME280;69494;43.654;3.884;2024-02-04T05:21:01;102481.47;;;12.46;59.65
79457;BME280;69494;43.654;3.884;2024-02-04T05:23:27;102482.31;;;12.44;59.73
79457;BME280;69494;43.654;3.884;2024-02-04T05:25:53;102495.34;;;12.44;59.59
79457;BME280;69494;43.654;3.884;2024-02-04T05:28:18;102496.19;;;12.41;59.69
79457;BME280;69494;43.654;3.884;2024-02-04T05:30:44;102484.03;;;12.40;59.61
79457;BME280;69494;43.654;3.884;2024-02-04T05:33:09;102486.59;;;12.37;59.49
79457;BME280;69494;43.654;3.884;2024-02-04T05:35:38;102490.09;;;12.36;59.68
79457;BME280;69494;43.654;3.884;2024-02-04T05:38:05;102484.84;;;12.34;59.70
79457;BME280;69494;43.654;3.884;2024-02-04T05:40:31;102479.63;;;12.33;59.60
79457;BME280;69494;43.654;3.884;2024-02-04T05:42:56;102470.06;;;12.32;59.57
79457;BME280;69494;43.654;3.884;2024-02-04T05:45:21;102472.63;;;12.30;59.42
79457;BME280;69494;43.654;3.884;2024-02-04T05:47:47;102479.59;;;12.30;59.53
79457;BME280;69494;43.654;3.884;2024-02-04T05:50:12;102473.50;;;12.28;59.83
79457;BME280;69494;43.654;3.884;2024-02-04T05:52:37;102474.38;;;12.25;59.48
79457;BME280;69494;43.654;3.884;2024-02-04T05:55:03;102483.88;;;12.25;59.71
79457;BME280;69494;43.654;3.884;2024-02-04T05:57:28;102491.69;;;12.23;59.58
79457;BME280;69494;43.654;3.884;2024-02-04T05:59:54;102494.28;;;12.23;59.59
79457;BME280;69494;43.654;3.884;2024-02-04T06:02:20;102495.13;;;12.19;59.39
79457;BME280;69494;43.654;3.884;2024-02-04T06:04:46;102499.47;;;12.18;59.89
79457;BME280;69494;43.654;3.884;2024-02-04T06:07:13;102502.94;;;12.17;59.44
79457;BME280;69494;43.654;3.884;2024-02-04T06:09:38;102510.75;;;12.17;59.54
79457;BME280;69494;43.654;3.884;2024-02-04T06:12:04;102510.72;;;12.16;59.48
79457;BME280;69494;43.654;3.884;2024-02-04T06:14:33;102499.44;;;12.15;59.38
79457;BME280;69494;43.654;3.884;2024-02-04T06:16:58;102502.03;;;12.14;59.18
79457;BME280;69494;43.654;3.884;2024-02-04T06:19:24;102508.97;;;12.13;59.16
79457;BME280;69494;43.654;3.884;2024-02-04T06:21:49;102509.81;;;12.12;59.20
79457;BME280;69494;43.654;3.884;2024-02-04T06:24:15;102514.16;;;12.12;59.08
79457;BME280;69494;43.654;3.884;2024-02-04T06:26:40;102519.34;;;12.10;58.71
79457;BME280;69494;43.654;3.884;2024-02-04T06:29:06;102528.06;;;12.11;58.78
79457;BME280;69494;43.654;3.884;2024-02-04T06:31:31;102525.44;;;12.12;58.34
79457;BME280;69494;43.654;3.884;2024-02-04T06:33:57;102535.88;;;12.12;58.48
79457;BME280;69494;43.654;3.884;2024-02-04T06:36:22;102535.88;;;12.11;57.88
79457;BME280;69494;43.654;3.884;2024-02-04T06:38:47;102541.09;;;12.11;58.02
79457;BME280;69494;43.654;3.884;2024-02-04T06:41:13;102542.78;;;12.09;58.30
79457;BME280;69494;43.654;3.884;2024-02-04T06:43:38;102547.13;;;12.08;58.28
79457;BME280;69494;43.654;3.884;2024-02-04T06:46:04;102546.28;;;12.09;58.13
79457;BME280;69494;43.654;3.884;2024-02-04T06:48:29;102561.03;;;12.10;57.91
79457;BME280;69494;43.654;3.884;2024-02-04T06:50:54;102566.25;;;12.10;57.83
79457;BME280;69494;43.654;3.884;2024-02-04T06:53:20;102569.72;;;12.09;57.65
79457;BME280;69494;43.654;3.884;2024-02-04T06:55:45;102569.72;;;12.09;58.00
79457;BME280;69494;43.654;3.884;2024-02-04T06:58:11;102568.81;;;12.09;57.83
79457;BME280;69494;43.654;3.884;2024-02-04T07:00:36;102574.94;;;12.09;58.00
79457;BME280;69494;43.654;3.884;2024-02-04T07:03:01;102574.91;;;12.08;57.85
79457;BME280;69494;43.654;3.884;2024-02-04T07:05:27;102582.72;;;12.08;57.57
79457;BME280;69494;43.654;3.884;2024-02-04T07:07:52;102572.28;;;12.06;57.84
79457;BME280;69494;43.654;3.884;2024-02-04T07:10:18;102586.16;;;12.05;57.71
79457;BME280;69494;43.654;3.884;2024-02-04T07:12:44;102584.44;;;12.06;57.71
79457;BME280;69494;43.654;3.884;2024-02-04T07:15:09;102592.31;;;12.12;60.29
79457;BME280;69494;43.654;3.884;2024-02-04T07:17:35;102586.34;;;12.22;59.52
79457;BME280;69494;43.654;3.884;2024-02-04T07:20:04;102595.81;;;12.15;58.65
79457;BME280;69494;43.654;3.884;2024-02-04T07:22:30;102590.59;;;12.14;58.93
79457;BME280;69494;43.654;3.884;2024-02-04T07:24:56;102591.44;;;12.10;58.57
79457;BME280;69494;43.654;3.884;2024-02-04T07:27:22;102595.75;;;12.08;58.25
79457;BME280;69494;43.654;3.884;2024-02-04T07:29:47;102589.66;;;12.06;58.27
79457;BME280;69494;43.654;3.884;2024-02-04T07:32:14;102581.81;;;12.04;57.83
79457;BME280;69494;43.654;3.884;2024-02-04T07:34:40;102586.13;;;12.04;57.91
79457;BME280;69494;43.654;3.884;2024-02-04T07:37:05;102592.22;;;12.02;57.95
79457;BME280;69494;43.654;3.884;2024-02-04T07:39:30;102589.59;;;12.01;58.00
79457;BME280;69494;43.654;3.884;2024-02-04T07:41:56;102589.59;;;12.01;57.89
79457;BME280;69494;43.654;3.884;2024-02-04T07:44:28;102584.34;;;11.99;57.96
79457;BME280;69494;43.654;3.884;2024-02-04T07:46:54;102594.81;;;12.02;58.10
79457;BME280;69494;43.654;3.884;2024-02-04T07:49:19;102606.16;;;12.08;58.51
79457;BME280;69494;43.654;3.884;2024-02-04T07:51:45;102605.34;;;12.13;59.37
79457;BME280;69494;43.654;3.884;2024-02-04T07:54:10;102609.72;;;12.17;59.55
79457;BME280;69494;43.654;3.884;2024-02-04T07:56:36;102602.81;;;12.19;60.18
79457;BME280;69494;43.654;3.884;2024-02-04T07:59:01;102607.25;;;12.25;60.31
79457;BME280;69494;43.654;3.884;2024-02-04T08:01:28;102615.94;;;12.30;60.39
79457;BME280;69494;43.654;3.884;2024-02-04T08:03:54;102618.63;;;12.35;60.78
79457;BME280;69494;43.654;3.884;2024-02-04T08:06:19;102612.59;;;12.42;61.01
79457;BME280;69494;43.654;3.884;2024-02-04T08:08:45;102612.66;;;12.47;61.14
79457;BME280;69494;43.654;3.884;2024-02-04T08:11:16;102634.41;;;12.50;61.42
79457;BME280;69494;43.654;3.884;2024-02-04T08:13:41;102625.81;;;12.57;62.00
79457;BME280;69494;43.654;3.884;2024-02-04T08:16:06;102625.81;;;12.57;61.71
79457;BME280;69494;43.654;3.884;2024-02-04T08:18:32;102630.22;;;12.65;61.98
79457;BME280;69494;43.654;3.884;2024-02-04T08:20:57;102623.31;;;12.70;62.29
79457;BME280;69494;43.654;3.884;2024-02-04T08:23:22;102618.97;;;12.72;62.24
79457;BME280;69494;43.654;3.884;2024-02-04T08:25:48;102624.22;;;12.76;62.38
79457;BME280;69494;43.654;3.884;2024-02-04T08:28:15;102635.56;;;12.82;62.70
79457;BME280;69494;43.654;3.884;2024-02-04T08:30:40;102637.38;;;12.89;63.15
79457;BME280;69494;43.654;3.884;2024-02-04T08:33:05;102621.78;;;12.96;62.88
79457;BME280;69494;43.654;3.884;2024-02-04T08:35:32;102640.06;;;13.00;63.11
79457;BME280;69494;43.654;3.884;2024-02-04T08:37:57;102633.13;;;13.02;63.00
79457;BME280;69494;43.654;3.884;2024-02-04T08:40:23;102634.91;;;13.07;63.18
79457;BME280;69494;43.654;3.884;2024-02-04T08:42:48;102629.78;;;13.20;63.76
79457;BME280;69494;43.654;3.884;2024-02-04T08:45:13;102624.59;;;13.24;63.50
79457;BME280;69494;43.654;3.884;2024-02-04T08:47:39;102619.44;;;13.32;64.17
79457;BME280;69494;43.654;3.884;2024-02-04T08:50:04;102636.00;;;13.35;64.15
79457;BME280;69494;43.654;3.884;2024-02-04T08:52:30;102634.31;;;13.42;64.06
79457;BME280;69494;43.654;3.884;2024-02-04T08:54:56;102626.44;;;13.39;64.11
79457;BME280;69494;43.654;3.884;2024-02-04T08:57:21;102629.13;;;13.45;64.77
79457;BME280;69494;43.654;3.884;2024-02-04T08:59:46;102623.91;;;13.47;64.32
79457;BME280;69494;43.654;3.884;2024-02-04T09:02:12;102625.66;;;13.51;64.70
79457;BME280;69494;43.654;3.884;2024-02-04T09:04:37;102622.22;;;13.57;65.28
79457;BME280;69494;43.654;3.884;2024-02-04T09:07:09;102620.50;;;13.60;64.43
79457;BME280;69494;43.654;3.884;2024-02-04T09:09:34;102621.38;;;13.65;64.67
79457;BME280;69494;43.654;3.884;2024-02-04T09:12:00;102611.84;;;13.70;64.54
79457;BME280;69494;43.654;3.884;2024-02-04T09:14:25;102613.59;;;13.75;64.54
79457;BME280;69494;43.654;3.884;2024-02-04T09:16:50;102609.25;;;13.78;64.65
79457;BME280;69494;43.654;3.884;2024-02-04T09:19:16;102607.56;;;13.88;64.80
79457;BME280;69494;43.654;3.884;2024-02-04T09:21:41;102610.19;;;13.96;64.72
79457;BME280;69494;43.654;3.884;2024-02-04T09:24:07;102608.47;;;14.04;64.73
79457;BME280;69494;43.654;3.884;2024-02-04T09:26:32;102618.97;;;14.10;64.35
79457;BME280;69494;43.654;3.884;2024-02-04T09:28:58;102625.94;;;14.16;64.79
79457;BME280;69494;43.654;3.884;2024-02-04T09:36:15;102595.22;;;16.06;57.10
79457;BME280;69494;43.654;3.884;2024-02-04T09:38:40;102605.91;;;15.53;53.67
79457;BME280;69494;43.654;3.884;2024-02-04T09:41:06;102607.75;;;14.79;52.36
79457;BME280;69494;43.654;3.884;2024-02-04T09:43:32;102609.41;;;14.15;54.33
79457;BME280;69494;43.654;3.884;2024-02-04T09:45:58;102610.19;;;13.92;54.99
79457;BME280;69494;43.654;3.884;2024-02-04T09:48:25;102611.88;;;13.80;55.68
79457;BME280;69494;43.654;3.884;2024-02-04T09:50:51;102617.16;;;13.94;55.34
79457;BME280;69494;43.654;3.884;2024-02-04T09:53:21;102615.50;;;14.20;55.11
79457;BME280;69494;43.654;3.884;2024-02-04T09:55:52;102610.31;;;14.46;53.83
79457;BME280;69494;43.654;3.884;2024-02-04T09:58:18;102606.88;;;14.64;54.02
79457;BME280;69494;43.654;3.884;2024-02-04T10:00:45;102606.88;;;14.78;52.87
79457;BME280;69494;43.654;3.884;2024-02-04T10:03:12;102605.13;;;14.90;52.11
79457;BME280;69494;43.654;3.884;2024-02-04T10:05:37;102609.50;;;14.87;51.70
79457;BME280;69494;43.654;3.884;2024-02-04T10:08:03;102609.50;;;14.97;48.32
79457;BME280;69494;43.654;3.884;2024-02-04T10:10:28;102606.84;;;15.09;47.80
79457;BME280;69494;43.654;3.884;2024-02-04T10:12:55;102610.34;;;15.33;48.30
79457;BME280;69494;43.654;3.884;2024-02-04T10:15:20;102615.50;;;15.50;47.65
79457;BME280;69494;43.654;3.884;2024-02-04T10:17:46;102605.00;;;15.59;48.75
79457;BME280;69494;43.654;3.884;2024-02-04T10:20:12;102604.97;;;15.68;49.45
79457;BME280;69494;43.654;3.884;2024-02-04T10:22:38;102608.47;;;15.79;48.00
79457;BME280;69494;43.654;3.884;2024-02-04T10:25:10;102609.22;;;16.06;48.57
79457;BME280;69494;43.654;3.884;2024-02-04T10:27:38;102609.97;;;16.25;48.20
79457;BME280;69494;43.654;3.884;2024-02-04T10:30:05;102604.63;;;16.41;46.49
79457;BME280;69494;43.654;3.884;2024-02-04T10:32:31;102601.09;;;16.48;46.76
79457;BME280;69494;43.654;3.884;2024-02-04T10:34:57;102595.78;;;16.54;47.01
79457;BME280;69494;43.654;3.884;2024-02-04T10:37:23;102597.38;;;16.72;46.58
79457;BME280;69494;43.654;3.884;2024-02-04T10:39:48;102595.47;;;16.95;45.81
79457;BME280;69494;43.654;3.884;2024-02-04T10:42:15;102589.22;;;17.07;45.01
79457;BME280;69494;43.654;3.884;2024-02-04T10:44:42;102585.44;;;17.33;44.86
79457;BME280;69494;43.654;3.884;2024-02-04T10:47:10;102583.19;;;17.75;44.64
79457;BME280;69494;43.654;3.884;2024-02-04T10:49:45;102577.91;;;17.80;43.52
79457;BME280;69494;43.654;3.884;2024-02-04T10:52:15;102576.66;;;18.08;44.23
79457;BME280;69494;43.654;3.884;2024-02-04T10:54:42;102572.97;;;18.19;43.97
79457;BME280;69494;43.654;3.884;2024-02-04T10:57:12;102570.19;;;18.29;45.23
79457;BME280;69494;43.654;3.884;2024-02-04T10:59:39;102571.88;;;18.35;43.62
79457;BME280;69494;43.654;3.884;2024-02-04T11:02:09;102555.00;;;18.47;41.56
79457;BME280;69494;43.654;3.884;2024-02-04T11:04:36;102561.69;;;18.66;41.10
79457;BME280;69494;43.654;3.884;2024-02-04T11:07:03;102543.69;;;18.95;41.46
79457;BME280;69494;43.654;3.884;2024-02-04T11:09:29;102549.16;;;19.29;40.56
79457;BME280;69494;43.654;3.884;2024-02-04T11:11:58;102548.66;;;19.54;41.20
79457;BME280;69494;43.654;3.884;2024-02-04T11:14:25;102543.13;;;19.66;38.82
79457;BME280;69494;43.654;3.884;2024-02-04T11:20:07;102544.28;;;19.53;39.05
79457;BME280;69494;43.654;3.884;2024-02-04T11:25:31;102534.03;;;19.81;40.10
79457;BME280;69494;43.654;3.884;2024-02-04T11:28:02;102523.09;;;19.99;38.78
79457;BME280;69494;43.654;3.884;2024-02-04T11:30:35;102525.09;;;20.24;38.17
79457;BME280;69494;43.654;3.884;2024-02-04T11:33:03;102517.72;;;20.38;37.92
79457;BME280;69494;43.654;3.884;2024-02-04T11:35:29;102509.16;;;20.65;37.14
79457;BME280;69494;43.654;3.884;2024-02-04T11:37:56;102506.94;;;20.82;37.29
79457;BME280;69494;43.654;3.884;2024-02-04T11:40:21;102498.44;;;20.71;38.60
79457;BME280;69494;43.654;3.884;2024-02-04T11:42:49;102497.28;;;20.81;36.33
79457;BME280;69494;43.654;3.884;2024-02-04T11:45:15;102493.59;;;20.87;36.32
79457;BME280;69494;43.654;3.884;2024-02-04T11:47:42;102490.06;;;20.88;35.72
79457;BME280;69494;43.654;3.884;2024-02-04T11:50:08;102487.97;;;20.99;34.85
79457;BME280;69494;43.654;3.884;2024-02-04T11:52:37;102475.22;;;21.13;34.72
79457;BME280;69494;43.654;3.884;2024-02-04T11:55:02;102468.66;;;21.28;33.06
79457;BME280;69494;43.654;3.884;2024-02-04T11:57:29;102460.94;;;21.50;33.39
79457;BME280;69494;43.654;3.884;2024-02-04T11:59:54;102457.69;;;21.70;33.27
79457;BME280;69494;43.654;3.884;2024-02-04T12:02:23;102457.16;;;21.87;34.94
79457;BME280;69494;43.654;3.884;2024-02-04T12:04:49;102455.44;;;21.85;34.08
79457;BME280;69494;43.654;3.884;2024-02-04T12:07:14;102458.72;;;21.93;35.47
79457;BME280;69494;43.654;3.884;2024-02-04T12:09:40;102450.84;;;21.92;34.48
79457;BME280;69494;43.654;3.884;2024-02-04T12:12:06;102434.78;;;21.96;34.46
79457;BME280;69494;43.654;3.884;2024-02-04T12:14:34;102435.63;;;21.98;33.60
79457;BME280;69494;43.654;3.884;2024-02-04T12:17:06;102439.91;;;22.02;34.60
79457;BME280;69494;43.654;3.884;2024-02-04T12:19:32;102429.28;;;22.31;31.95
79457;BME280;69494;43.654;3.884;2024-02-04T12:21:57;102413.38;;;22.31;31.17
79457;BME280;69494;43.654;3.884;2024-02-04T12:24:23;102416.59;;;22.39;31.75
79457;BME280;69494;43.654;3.884;2024-02-04T12:26:48;102419.56;;;22.55;31.84
79457;BME280;69494;43.654;3.884;2024-02-04T12:29:14;102405.09;;;22.65;32.04
79457;BME280;69494;43.654;3.884;2024-02-04T12:31:39;102404.50;;;22.57;31.09
79457;BME280;69494;43.654;3.884;2024-02-04T12:34:05;102405.09;;;22.65;30.99
79457;BME280;69494;43.654;3.884;2024-02-04T12:36:31;102401.34;;;22.71;30.39
79457;BME280;69494;43.654;3.884;2024-02-04T12:38:59;102397.25;;;22.85;31.12
79457;BME280;69494;43.654;3.884;2024-02-04T12:41:35;102385.78;;;22.85;31.00
79457;BME280;69494;43.654;3.884;2024-02-04T12:44:00;102388.03;;;22.96;31.30
79457;BME280;69494;43.654;3.884;2024-02-04T12:46:28;102386.06;;;23.01;30.52
79457;BME280;69494;43.654;3.884;2024-02-04T12:48:57;102376.19;;;23.06;30.69
79457;BME280;69494;43.654;3.884;2024-02-04T12:51:31;102380.38;;;23.12;31.26
79457;BME280;69494;43.654;3.884;2024-02-04T12:54:09;102379.16;;;23.20;30.68
79457;BME280;69494;43.654;3.884;2024-02-04T12:56:52;102370.78;;;23.31;29.84
79457;BME280;69494;43.654;3.884;2024-02-04T12:59:31;102371.78;;;23.29;31.13